Time;durP1;ratioP1;P1;durP2;ratioP2;P2;SDS_P1;SDS_P2;PMS_P1;PMS_P2;Temp;Humidity;BMP_temperature;BMP_pressure;BME280_temperature;BME280_humidity;BME280_pressure;Samples;Min_cycle;Max_cycle;Signal;HPM_P1;HPM_P2
2022/08/18 00:02:29;;;;;;;10.30;6.18;;;;;;;23.15;63.08;96443.53;6214985;23;20572;-79
2022/08/18 00:04:59;;;;;;;7.15;6.28;;;;;;;23.12;62.73;96438.75;6216667;23;20481;-80
2022/08/18 00:07:29;;;;;;;9.00;5.75;;;;;;;23.07;63.42;96438.72;6218862;23;20028;-79
2022/08/18 00:09:58;;;;;;;10.02;5.60;;;;;;;22.99;62.93;96438.16;6218100;23;20056;-78
2022/08/18 00:12:30;;;;;;;7.78;6.32;;;;;;;22.96;63.43;96440.56;6216146;23;20461;-79
2022/08/18 00:15:00;;;;;;;8.93;5.53;;;;;;;22.95;63.60;96438.97;6216825;23;20079;-79
2022/08/18 00:17:28;;;;;;;6.70;6.10;;;;;;;22.89;63.34;96424.84;6216287;23;20075;-79
2022/08/18 00:19:56;;;;;;;6.30;5.50;;;;;;;22.82;64.15;96429.63;6216063;23;20013;-79
2022/08/18 00:22:23;;;;;;;7.45;6.00;;;;;;;22.75;64.75;96423.78;6216102;23;20541;-78
2022/08/18 00:24:54;;;;;;;8.60;7.28;;;;;;;22.65;64.71;96423.75;6216537;23;20095;-79
2022/08/18 00:27:23;;;;;;;11.77;7.93;;;;;;;22.59;66.15;96431.72;6215901;23;20060;-79
2022/08/18 00:29:58;;;;;;;9.07;6.38;;;;;;;22.61;65.30;96434.94;6216101;23;20074;-79
2022/08/18 00:32:29;;;;;;;7.18;6.25;;;;;;;22.58;64.83;96430.13;6216302;23;20032;-79
2022/08/18 00:34:56;;;;;;;7.93;6.95;;;;;;;22.54;64.51;96425.59;6217034;23;20020;-79
2022/08/18 00:37:24;;;;;;;8.82;6.80;;;;;;;22.44;64.35;96420.28;6216141;23;20063;-79
2022/08/18 00:39:52;;;;;;;6.95;6.03;;;;;;;22.37;65.41;96408.03;6216926;23;20032;-79
2022/08/18 00:42:23;;;;;;;6.97;6.30;;;;;;;22.37;65.69;96401.91;6236904;23;20051;-80
2022/08/18 00:45:01;;;;;;;9.25;6.78;;;;;;;22.32;65.80;96402.66;6234446;23;20017;-79
2022/08/18 00:47:29;;;;;;;;;;;;;;;22.32;65.07;96404.53;6217756;23;20025;-78
2022/08/18 00:50:20;;;;;;;8.55;7.10;;;;;;;22.21;65.08;96398.34;6214931;23;19930;-79
2022/08/18 00:52:53;;;;;;;5.88;5.28;;;;;;;22.16;65.89;96399.13;6215474;23;20079;-79
2022/08/18 00:55:22;;;;;;;7.25;6.55;;;;;;;22.18;66.56;96399.69;6215460;23;20400;-79
2022/08/18 00:57:54;;;;;;;8.65;6.55;;;;;;;22.23;66.98;96398.94;6215328;23;20020;-79
2022/08/18 01:00:24;;;;;;;7.65;6.95;;;;;;;22.17;65.96;96392.78;6214902;23;20052;-79
2022/08/18 01:02:56;;;;;;;7.55;6.70;;;;;;;22.10;66.40;96392.22;6214943;23;20059;-79
2022/08/18 01:05:29;;;;;;;8.65;7.15;;;;;;;22.04;67.10;96403.91;6215659;23;20017;-79
2022/08/18 01:07:58;;;;;;;9.45;6.97;;;;;;;21.97;66.65;96395.34;6215650;23;20027;-79
2022/08/18 01:10:26;;;;;;;7.82;7.13;;;;;;;21.91;66.86;96385.75;6214264;23;20341;-79
2022/08/18 01:12:57;;;;;;;7.70;6.82;;;;;;;21.89;67.69;96380.72;6215086;23;20061;-79
2022/08/18 01:15:27;;;;;;;9.75;7.50;;;;;;;21.86;67.75;96391.84;6214746;23;20047;-79
2022/08/18 01:24:08;;;;;;;9.65;7.60;;;;;;;21.84;67.58;96377.22;6214688;23;20028;-79
2022/08/18 01:26:39;;;;;;;8.70;7.47;;;;;;;21.77;67.97;96372.16;6214835;23;20048;-79
2022/08/18 01:29:12;;;;;;;7.53;6.72;;;;;;;21.74;68.12;96362.88;6214321;23;20021;-79
2022/08/18 01:31:54;;;;;;;9.88;7.50;;;;;;;21.75;68.61;96363.66;6214309;23;20021;-79
2022/08/18 01:34:24;;;;;;;9.68;6.60;;;;;;;21.77;68.82;96357.03;6214260;23;20531;-79
2022/08/18 01:36:53;;;;;;;7.22;6.47;;;;;;;21.81;69.36;96352.78;6214908;23;20092;-79
2022/08/18 01:39:23;;;;;;;7.43;6.68;;;;;;;21.84;68.36;96340.06;6214029;23;20020;-79
2022/08/18 01:42:11;;;;;;;9.10;6.72;;;;;;;21.79;67.52;96340.84;6213783;23;20021;-78
2022/08/18 01:44:40;;;;;;;7.10;6.40;;;;;;;21.79;67.19;96344.28;6213582;23;20337;-79
2022/08/18 01:47:09;;;;;;;6.70;6.10;;;;;;;21.80;67.56;96335.28;6215273;23;20021;-79
2022/08/18 01:49:37;;;;;;;7.15;6.43;;;;;;;21.84;70.75;96334.75;6216260;23;20013;-79
2022/08/18 01:52:06;;;;;;;8.27;7.45;;;;;;;21.85;67.69;96328.41;6216080;23;20100;-79
2022/08/18 01:54:35;;;;;;;7.65;6.85;;;;;;;21.80;67.20;96329.97;6216269;23;20457;-79
2022/08/18 01:57:03;;;;;;;7.38;6.68;;;;;;;;;;6216292;23;20043;-79
2022/08/18 01:59:31;;;;;;;8.10;6.38;;;;;;;21.72;67.60;96317.19;6214223;23;20059;-79
2022/08/18 02:01:59;;;;;;;7.70;7.00;;;;;;;21.74;68.88;96315.06;6214317;23;20044;-79
2022/08/18 02:04:33;;;;;;;7.65;6.78;;;;;;;21.81;72.10;96304.22;6215790;23;20396;-79
2022/08/18 02:07:11;;;;;;;9.23;8.02;;;;;;;21.79;68.90;96301.81;6214738;23;20029;-79
2022/08/18 02:12:27;;;;;;;8.63;7.68;;;;;;;21.63;68.78;96297.53;6215625;23;19996;-79
2022/08/18 02:23:51;;;;;;;8.75;7.57;;;;;;;21.39;69.38;96300.56;6190476;23;20060;-80
2022/08/18 02:32:01;;;;;;;8.43;7.63;;;;;;;21.20;69.85;96283.47;6228124;23;20024;-79
2022/08/18 02:34:35;;;;;;;7.75;7.03;;;;;;;21.21;69.37;96279.78;6215864;23;20313;-77
2022/08/18 02:37:04;;;;;;;8.25;7.40;;;;;;;21.18;69.36;96275.78;6213687;23;20021;-77
2022/08/18 02:39:34;;;;;;;7.03;6.32;;;;;;;21.18;69.71;96269.66;6212100;23;20542;-77
2022/08/18 02:42:02;;;;;;;7.50;6.80;;;;;;;21.16;69.55;96272.56;6215425;23;20104;-76
2022/08/18 02:44:30;;;;;;;7.57;6.68;;;;;;;21.19;69.29;96260.69;6215754;23;20020;-76
2022/08/18 02:47:00;;;;;;;6.55;5.95;;;;;;;21.23;69.59;96261.75;6215546;23;20024;-76
2022/08/18 02:49:28;;;;;;;7.70;7.03;;;;;;;21.21;68.84;96261.22;6215748;23;20071;-76
2022/08/18 02:51:55;;;;;;;8.98;7.40;;;;;;;21.14;68.64;96264.09;6214940;23;20047;-76
2022/08/18 02:54:23;;;;;;;6.57;5.97;;;;;;;21.11;69.25;96263.81;6215695;23;20024;-76
2022/08/18 02:56:52;;;;;;;7.93;7.10;;;;;;;21.09;69.70;96261.41;6215660;23;20083;-76
2022/08/18 02:59:23;;;;;;;10.00;7.00;;;;;;;21.20;73.43;96267.56;6216957;23;20028;-75
2022/08/18 03:01:53;;;;;;;8.32;7.50;;;;;;;21.29;71.71;96259.91;6238376;23;20053;-77
2022/08/18 03:04:25;;;;;;;8.82;6.85;;;;;;;21.31;71.28;96266.56;6238290;23;20025;-76
2022/08/18 03:06:58;;;;;;;9.02;7.10;;;;;;;21.37;73.43;96270.03;6224045;23;20039;-76
2022/08/18 03:09:26;;;;;;;8.02;7.18;;;;;;;21.39;71.37;96260.75;6215674;23;20024;-77
2022/08/18 03:11:54;;;;;;;7.43;6.47;;;;;;;21.43;71.69;96265.56;6215024;23;20024;-76
2022/08/18 03:14:22;;;;;;;7.45;6.75;;;;;;;21.48;74.04;96257.66;6215392;23;20036;-76
2022/08/18 03:16:50;;;;;;;8.27;7.47;;;;;;;21.48;70.89;96250.47;6215758;23;20020;-77
2022/08/18 03:19:23;;;;;;;9.45;8.18;;;;;;;21.45;70.93;96258.16;6215205;23;20017;-77
2022/08/18 03:21:51;;;;;;;8.93;8.02;;;;;;;21.45;71.12;96258.97;6214396;23;20032;-77
2022/08/18 03:24:20;;;;;;;9.25;7.68;;;;;;;21.43;70.40;96255.78;6214955;23;20024;-77
2022/08/18 03:26:52;;;;;;;9.30;8.45;;;;;;;21.44;70.22;96256.56;6215442;23;20020;-77
2022/08/18 03:29:20;;;;;;;11.63;8.50;;;;;;;21.45;70.56;96255.50;6214861;23;20032;-77
2022/08/18 03:31:48;;;;;;;9.55;8.65;;;;;;;21.47;70.98;96250.72;6214443;23;20055;-77
2022/08/18 03:34:18;;;;;;;11.68;10.32;;;;;;;21.47;70.84;96256.03;6215420;23;20192;-77
2022/08/18 03:36:49;;;;;;;9.35;8.48;;;;;;;21.50;73.04;96245.72;6215365;23;20040;-76
2022/08/18 03:39:18;;;;;;;10.23;9.10;;;;;;;21.55;74.05;96244.94;6214946;23;20095;-77
2022/08/18 03:41:46;;;;;;;10.43;9.52;;;;;;;21.55;71.45;96247.59;6214889;23;20031;-77
2022/08/18 03:44:29;;;;;;;10.00;9.10;;;;;;;21.54;70.96;96256.63;6215510;23;20456;-77
2022/08/18 03:46:57;;;;;;;11.02;10.02;;;;;;;21.52;70.63;96253.41;6215349;23;20361;-77
2022/08/18 03:49:26;;;;;;;12.60;11.02;;;;;;;21.54;72.10;96254.75;6214734;23;20052;-77
2022/08/18 03:51:55;;;;;;;11.55;10.07;;;;;;;21.54;71.06;96256.63;6214871;23;20031;-77
2022/08/18 03:54:22;;;;;;;11.15;9.93;;;;;;;21.50;70.37;96255.53;6215175;23;20032;-77
2022/08/18 03:56:50;;;;;;;9.73;8.57;;;;;;;21.48;70.06;96258.44;6214730;23;20096;-77
2022/08/18 03:59:19;;;;;;;9.00;8.20;;;;;;;21.39;69.26;96255.44;6214903;23;20048;-77
2022/08/18 04:01:48;;;;;;;8.90;8.00;;;;;;;21.31;69.33;96252.50;6214257;23;20476;-77
2022/08/18 04:04:20;;;;;;;7.82;7.13;;;;;;;21.28;69.28;96255.69;6214991;23;20020;-77
2022/08/18 04:06:50;;;;;;;7.35;6.75;;;;;;;21.25;68.97;96259.63;6214488;23;20519;-77
2022/08/18 04:09:19;;;;;;;7.22;6.53;;;;;;;21.22;68.62;96267.31;6214746;23;20024;-77
2022/08/18 04:11:47;;;;;;;7.78;6.93;;;;;;;21.19;68.74;96255.38;6214912;23;20024;-77
2022/08/18 04:14:18;;;;;;;7.57;6.50;;;;;;;21.17;68.88;96254.81;6214795;23;20020;-77
2022/08/18 04:16:47;;;;;;;6.47;5.88;;;;;;;21.17;70.16;96252.97;6214860;23;20028;-77
2022/08/18 04:19:16;;;;;;;8.20;7.40;;;;;;;21.22;72.30;96269.97;6214922;23;20048;-77
2022/08/18 04:21:55;;;;;;;8.25;7.55;;;;;;;21.27;71.89;96268.13;6214635;23;20043;-77
2022/08/18 04:24:27;;;;;;;7.80;7.20;;;;;;;21.34;73.79;96263.41;6214539;23;20475;-77
2022/08/18 04:27:00;;;;;;;8.85;7.60;;;;;;;21.42;73.76;96274.59;6214765;23;20052;-77
2022/08/18 04:29:28;;;;;;;8.98;8.02;;;;;;;21.48;74.63;96268.25;6214465;23;20079;-77
2022/08/18 04:31:56;;;;;;;8.20;7.47;;;;;;;21.50;72.23;96271.47;6213958;23;20360;-77
2022/08/18 04:34:24;;;;;;;10.25;9.13;;;;;;;21.50;70.89;96276.75;6215091;23;20020;-77
2022/08/18 04:36:53;;;;;;;9.80;8.80;;;;;;;21.51;71.32;96283.66;6214402;23;20056;-77
2022/08/18 04:39:22;;;;;;;9.75;8.85;;;;;;;21.52;70.25;96287.91;6214966;23;20031;-77
2022/08/18 04:41:51;;;;;;;10.02;9.13;;;;;;;21.50;69.66;96280.22;6214243;23;20095;-77
2022/08/18 04:44:20;;;;;;;14.10;10.38;;;;;;;21.51;70.57;96278.34;6214514;23;20047;-77
2022/08/18 04:46:50;;;;;;;11.55;10.02;;;;;;;21.51;69.81;96281.78;6214483;23;20017;-77
2022/08/18 04:49:19;;;;;;;10.93;9.93;;;;;;;21.49;69.67;96286.56;6214661;23;20021;-76
2022/08/18 04:53:43;;;;;;;11.65;10.45;;;;;;;21.48;69.55;96289.50;6214350;23;20024;-77
2022/08/18 04:54:56;;;;;;;12.35;10.68;;;;;;;21.47;69.28;96293.19;6213919;23;20023;-77
2022/08/18 04:57:25;;;;;;;13.23;10.60;;;;;;;21.49;70.52;96302.47;6214410;23;20017;-77
2022/08/18 04:59:53;;;;;;;15.75;11.45;;;;;;;21.50;69.66;96290.03;6214257;23;20055;-77
2022/08/18 05:02:22;;;;;;;13.30;11.00;;;;;;;21.53;71.65;96300.91;6214426;23;20403;-77
2022/08/18 05:04:51;;;;;;;12.60;10.88;;;;;;;21.56;70.89;96296.97;6214134;23;20027;-77
2022/08/18 05:07:22;;;;;;;12.60;10.43;;;;;;;21.57;72.22;96299.34;6213997;23;20017;-77
2022/08/18 05:09:51;;;;;;;13.05;11.02;;;;;;;21.58;70.50;96302.78;6214658;23;20028;-77
2022/08/18 05:12:20;;;;;;;11.75;10.70;;;;;;;21.59;70.91;96312.34;6214190;23;20024;-77
2022/08/18 05:14:56;;;;;;;11.60;10.38;;;;;;;21.57;70.13;96319.78;6215378;23;20070;-78
2022/08/18 05:17:27;;;;;;;12.13;10.87;;;;;;;21.55;69.91;96308.63;6215064;23;20028;-78
2022/08/18 05:20:03;;;;;;;11.38;10.18;;;;;;;21.53;69.33;96316.03;6218483;23;20029;-78
2022/08/18 05:22:37;;;;;;;10.80;9.80;;;;;;;21.53;71.39;96318.69;6216820;23;20021;-78
2022/08/18 05:25:06;;;;;;;11.57;10.38;;;;;;;21.53;69.73;96313.38;6222381;23;20047;-77
2022/08/18 05:27:36;;;;;;;10.63;9.52;;;;;;;21.51;69.94;96307.53;6240728;23;20033;-77
2022/08/18 05:30:07;;;;;;;11.43;10.20;;;;;;;21.49;69.68;96307.00;6234737;23;20388;-77
2022/08/18 05:32:38;;;;;;;11.63;10.52;;;;;;;21.48;71.45;96313.38;6217460;23;20055;-78
2022/08/18 05:35:22;;;;;;;11.52;10.32;;;;;;;21.46;70.48;96312.84;6216604;23;20460;-78
2022/08/18 05:38:23;;;;;;;11.18;9.98;;;;;;;21.43;69.60;96314.16;6215638;23;20021;-77
2022/08/18 05:41:07;;;;;;;10.55;9.50;;;;;;;21.44;71.32;96322.91;6212463;23;20052;-77
2022/08/18 05:43:42;;;;;;;10.55;9.55;;;;;;;21.45;69.80;96324.50;6214796;23;20021;-75
2022/08/18 05:46:24;;;;;;;10.77;9.38;;;;;;;21.46;69.50;96328.75;6213946;23;20326;-75
2022/08/18 05:48:51;;;;;;;10.07;9.13;;;;;;;21.47;70.72;96327.69;6214402;23;20093;-76
2022/08/18 05:51:27;;;;;;;10.75;9.75;;;;;;;21.47;70.45;96327.69;6214272;23;20127;-77
2022/08/18 05:56:48;;;;;;;10.35;9.30;;;;;;;21.49;70.68;96330.88;6214360;23;20025;-78
2022/08/18 05:59:21;;;;;;;9.43;8.63;;;;;;;21.49;70.57;96344.16;6215096;23;20100;-80
2022/08/18 06:01:56;;;;;;;11.13;9.13;;;;;;;21.49;71.46;96352.09;6214229;23;20024;-81
2022/08/18 06:04:34;;;;;;;10.82;9.52;;;;;;;21.48;69.83;96363.78;6215044;23;20377;-81
2022/08/18 06:07:05;;;;;;;9.25;8.35;;;;;;;21.47;70.11;96383.41;6215258;23;20040;-81
2022/08/18 06:09:37;;;;;;;9.60;8.73;;;;;;;21.48;71.37;96375.19;6216558;23;20072;-82
2022/08/18 06:12:09;;;;;;;;;;;;;;;21.49;71.11;96365.38;6219446;23;20140;-82
2022/08/18 06:14:41;;;;;;;10.37;8.67;;;;;;;21.46;69.98;96366.69;6217130;23;19983;-83
2022/08/18 06:17:16;;;;;;;;;;;;;;;21.47;71.21;96372.78;6214847;23;20084;-81
2022/08/18 06:19:51;;;;;;;9.50;8.50;;;;;;;21.47;69.04;96372.78;6213676;23;20007;-81
2022/08/18 06:22:30;;;;;;;10.13;8.93;;;;;;;21.46;69.63;96360.59;6214801;23;20111;-79
2022/08/18 06:25:06;;;;;;;10.85;9.80;;;;;;;21.47;69.84;96362.19;6216209;23;20024;-80
2022/08/18 06:27:40;;;;;;;11.00;9.20;;;;;;;21.46;69.01;96357.94;6216857;23;20353;-80
2022/08/18 06:30:14;;;;;;;10.15;9.15;;;;;;;21.47;69.39;96359.53;6216809;23;20027;-80
2022/08/18 06:32:59;;;;;;;11.65;9.23;;;;;;;21.48;70.88;96359.28;6217159;23;20035;-80
2022/08/18 06:35:35;;;;;;;10.02;9.13;;;;;;;21.52;70.63;96356.91;6219356;23;20031;-80
2022/08/18 06:41:08;;;;;;;10.43;9.43;;;;;;;21.53;68.96;96339.94;6218923;23;20032;-79
2022/08/18 06:44:02;;;;;;;9.43;8.50;;;;;;;21.53;70.71;96356.66;6218933;23;20083;-79
2022/08/18 06:46:40;;;;;;;10.45;9.45;;;;;;;21.56;71.65;96373.94;6217483;23;20076;-81
2022/08/18 06:49:14;;;;;;;9.00;8.20;;;;;;;21.61;72.08;96379.25;6218743;23;20025;-82
2022/08/18 06:51:41;;;;;;;9.95;8.95;;;;;;;21.64;70.76;96373.41;6221187;23;20082;-82
2022/08/18 06:54:27;;;;;;;9.02;8.15;;;;;;;21.67;71.75;96378.22;6238478;23;20024;-82
2022/08/18 06:56:56;;;;;;;9.32;7.75;;;;;;;21.63;69.28;96369.19;6236897;23;20021;-81
2022/08/18 06:59:29;;;;;;;9.40;8.50;;;;;;;21.63;68.41;96377.16;6222795;23;20031;-81
2022/08/18 07:02:02;;;;;;;10.20;8.30;;;;;;;21.63;68.05;96377.16;6219526;23;20411;-80
2022/08/18 07:04:36;;;;;;;10.20;9.02;;;;;;;21.66;68.51;96373.97;6218690;23;20020;-81
2022/08/18 07:07:20;;;;;;;10.07;7.97;;;;;;;21.68;68.36;96363.88;6217178;23;20044;-82
2022/08/18 07:09:48;;;;;;;10.15;8.27;;;;;;;21.68;68.33;96358.59;6216562;23;20021;-82
2022/08/18 07:12:22;;;;;;;9.95;8.93;;;;;;;21.69;67.22;96365.50;6216683;23;20029;-81
2022/08/18 07:14:59;;;;;;;8.57;7.78;;;;;;;21.72;67.43;96356.22;6216980;23;20025;-82
2022/08/18 07:17:29;;;;;;;8.63;7.80;;;;;;;;;;6216457;23;20024;-81
2022/08/18 07:20:26;;;;;;;9.02;7.38;;;;;;;21.78;66.83;96352.53;6228610;23;20031;-82
2022/08/18 07:23:05;;;;;;;9.32;8.02;;;;;;;21.82;66.79;96353.59;6234832;23;20417;-79
2022/08/18 07:28:30;;;;;;;8.80;7.68;;;;;;;21.95;66.89;96355.78;6237010;23;20020;-79
2022/08/18 07:31:23;;;;;;;9.82;8.32;;;;;;;22.04;67.02;96344.63;6243313;23;20063;-79
2022/08/18 07:34:07;;;;;;;8.60;7.70;;;;;;;22.13;67.01;96349.19;6243495;23;20031;-79
2022/08/18 07:36:46;;;;;;;11.07;7.50;;;;;;;22.21;66.86;96340.72;6243644;23;20060;-79
2022/08/18 07:39:38;;;;;;;9.70;7.63;;;;;;;22.27;66.24;96336.25;6243474;23;20004;-80
2022/08/18 07:42:37;;;;;;;9.75;7.38;;;;;;;22.33;65.16;96327.22;6268218;22;20024;-78
2022/08/18 07:45:34;;;;;;;8.90;7.88;;;;;;;22.37;65.32;96327.50;6273726;22;20000;-79
2022/08/18 07:48:11;;;;;;;8.15;7.45;;;;;;;22.39;65.23;96323.53;6273312;22;20075;-79
2022/08/18 07:54:32;;;;;;;8.55;7.75;;;;;;;22.41;64.63;96339.19;6217199;22;20021;-81
2022/08/18 07:57:27;;;;;;;8.57;7.60;;;;;;;22.44;64.89;96332.56;6215974;23;20024;-80
2022/08/18 08:00:03;;;;;;;9.32;8.52;;;;;;;22.45;65.18;96339.47;6215501;23;20427;-80
2022/08/18 08:02:49;;;;;;;7.68;6.97;;;;;;;22.47;65.24;96338.13;6217240;23;20383;-81
2022/08/18 08:05:36;;;;;;;7.88;7.07;;;;;;;22.49;63.90;96335.22;6192166;23;20024;-79
2022/08/18 08:08:17;;;;;;;8.30;7.50;;;;;;;22.49;63.70;96333.34;6217570;23;20059;-81
2022/08/18 08:11:05;;;;;;;7.85;6.53;;;;;;;22.50;64.63;96337.63;6218588;23;20020;-82
2022/08/18 08:13:46;;;;;;;7.70;7.00;;;;;;;22.49;64.18;96346.63;6214553;23;20074;-83
2022/08/18 08:16:39;;;;;;;7.68;6.95;;;;;;;22.45;63.95;96353.53;6234112;23;20004;-83
2022/08/18 08:19:26;;;;;;;7.82;7.13;;;;;;;22.45;64.22;96344.78;6234936;23;20031;-83
2022/08/18 08:22:32;;;;;;;7.20;6.50;;;;;;;22.48;65.75;96361.00;6236256;23;20020;-83
2022/08/18 08:25:10;;;;;;;7.97;7.18;;;;;;;22.49;66.01;96372.44;6239549;22;20092;-81
2022/08/18 08:28:21;;;;;;;7.60;6.90;;;;;;;22.51;65.68;96367.66;6232573;22;20013;-81
2022/08/18 08:31:01;;;;;;;7.47;6.65;;;;;;;22.52;67.26;96378.03;6169136;23;20045;-82
2022/08/18 08:37:04;;;;;;;6.80;6.22;;;;;;;22.54;66.52;96369.78;6180612;23;20055;-83
2022/08/18 08:39:56;;;;;;;8.15;6.55;;;;;;;22.54;66.71;96378.56;6176449;23;20018;-82
2022/08/18 08:51:02;;;;;;;7.60;6.85;;;;;;;22.54;65.05;96380.41;6225931;23;20031;-79
2022/08/18 08:53:48;;;;;;;7.90;6.57;;;;;;;22.53;66.07;96373.50;6236259;23;20076;-78
2022/08/18 08:56:28;;;;;;;7.93;7.22;;;;;;;22.53;65.30;96368.97;6237871;23;20059;-81
2022/08/18 08:59:03;;;;;;;8.73;7.25;;;;;;;22.53;64.94;96371.63;6233329;23;20016;-81
2022/08/18 09:01:50;;;;;;;7.38;6.68;;;;;;;22.55;65.79;96368.72;6236976;23;20021;-81
2022/08/18 09:04:38;;;;;;;8.52;7.28;;;;;;;22.53;64.51;96358.34;6232902;23;20031;-80
2022/08/18 09:08:21;;;;;;;8.90;7.47;;;;;;;22.50;64.61;96337.63;6236822;23;20083;-83
2022/08/18 09:11:11;;;;;;;7.20;6.47;;;;;;;22.49;64.79;96335.22;6231014;23;20031;-84
2022/08/18 09:18:13;;;;;;;7.88;7.07;;;;;;;22.48;64.83;96320.31;6233679;23;20031;-84
2022/08/18 09:21:04;;;;;;;12.05;8.05;;;;;;;22.48;64.85;96307.84;6241991;23;20021;-78
2022/08/18 09:24:12;;;;;;;9.13;8.25;;;;;;;22.50;64.76;96299.59;6242919;23;20059;-81
2022/08/18 09:26:48;;;;;;;;;;;;;;;22.53;65.00;96294.56;6226677;23;20016;-81
2022/08/18 09:29:26;;;;;;;10.32;8.95;;;;;;;22.58;65.96;96299.06;6233004;23;19970;-80
2022/08/18 09:32:32;;;;;;;8.85;8.05;;;;;;;22.62;64.93;96292.94;6223249;23;20014;-79
2022/08/18 09:35:12;;;;;;;9.75;7.88;;;;;;;22.68;65.10;96301.75;6240460;23;20052;-78
2022/08/18 09:41:30;;;;;;;10.88;9.77;;;;;;;22.68;65.04;96306.25;6236329;23;20359;-80
2022/08/18 09:43:39;;;;;;;9.13;8.32;;;;;;;22.77;65.05;96323.28;6233105;23;20492;-81
2022/08/18 09:46:08;;;;;;;9.23;8.32;;;;;;;22.80;65.27;96341.34;6235436;23;20020;-80
2022/08/18 09:48:42;;;;;;;9.07;8.18;;;;;;;22.85;65.85;96338.69;6229520;23;20064;-80
2022/08/18 09:51:34;;;;;;;;;;;;;;;22.94;65.52;96331.00;6230965;23;20453;-81
2022/08/18 09:54:19;;;;;;;9.00;8.15;;;;;;;22.99;63.97;96334.41;6233512;23;19974;-81
2022/08/18 09:57:23;;;;;;;8.52;7.07;;;;;;;23.11;64.00;96328.88;6231114;23;20020;-81
2022/08/18 09:59:55;;;;;;;7.88;7.25;;;;;;;23.18;62.58;96320.63;6229999;23;20021;-80
2022/08/18 10:03:10;;;;;;;7.93;7.13;;;;;;;23.26;63.62;96319.25;6223588;23;20407;-79
2022/08/18 10:05:39;;;;;;;8.27;7.47;;;;;;;23.29;62.34;96326.72;6178010;23;20030;-81
2022/08/18 10:08:46;;;;;;;7.70;7.05;;;;;;;23.31;62.06;96320.06;6231370;23;20020;-80
2022/08/18 10:11:31;;;;;;;9.50;6.70;;;;;;;23.30;62.21;96329.09;6228993;23;20027;-81
2022/08/18 10:14:23;;;;;;;7.68;6.93;;;;;;;23.33;62.22;96328.56;6238529;23;20028;-81
2022/08/18 10:17:02;;;;;;;8.98;7.47;;;;;;;23.40;62.39;96328.28;6240761;23;20008;-81
2022/08/18 10:19:59;;;;;;;8.60;6.68;;;;;;;23.46;61.89;96329.84;6238179;23;20025;-81
2022/08/18 10:22:40;;;;;;;7.72;6.93;;;;;;;23.54;61.52;96326.63;6236985;23;20032;-81
2022/08/18 10:25:10;;;;;;;8.18;7.38;;;;;;;23.65;61.40;96319.41;6238316;23;20016;-80
2022/08/18 10:27:55;;;;;;;9.05;6.97;;;;;;;23.74;61.00;96299.13;6238869;23;20047;-80
2022/08/18 10:31:02;;;;;;;13.23;7.53;;;;;;;23.80;60.30;96299.94;6236409;23;20027;-81
2022/08/18 10:34:00;;;;;;;7.53;6.75;;;;;;;23.87;60.31;96304.97;6235937;23;20032;-81
2022/08/18 10:36:46;;;;;;;8.30;7.55;;;;;;;23.95;59.60;96309.72;6241877;23;20048;-80
2022/08/18 10:39:32;;;;;;;7.55;6.85;;;;;;;24.02;59.93;96296.91;6243931;23;20024;-78
2022/08/18 10:42:14;;;;;;;7.47;6.82;;;;;;;24.15;59.47;96279.50;6233957;23;20020;-80
2022/08/18 10:44:47;;;;;;;8.50;7.15;;;;;;;24.21;59.04;96267.75;6229639;23;20024;-80
2022/08/18 10:47:26;;;;;;;9.35;8.45;;;;;;;24.25;58.69;96258.91;6231328;23;20016;-81
2022/08/18 10:50:08;;;;;;;7.93;7.05;;;;;;;24.36;59.00;96253.50;6243569;23;20028;-81
2022/08/18 10:52:57;;;;;;;7.65;6.80;;;;;;;24.51;58.56;96239.28;6245053;23;20000;-81
2022/08/18 10:56:03;;;;;;;8.30;7.55;;;;;;;24.71;57.68;96238.31;6244776;23;20020;-80
2022/08/18 10:58:53;;;;;;;9.43;7.70;;;;;;;24.77;58.68;96255.84;6236904;23;20008;-80
2022/08/18 11:01:52;;;;;;;8.23;7.43;;;;;;;24.74;57.92;96259.88;6239032;23;20031;-81
2022/08/18 11:04:39;;;;;;;10.38;7.25;;;;;;;24.73;57.35;96254.81;6243020;23;20005;-80
2022/08/18 11:07:45;;;;;;;8.57;7.78;;;;;;;24.72;57.21;96247.91;6244576;23;20076;-81
2022/08/18 11:10:38;;;;;;;8.60;7.72;;;;;;;24.74;57.11;96251.09;6225261;23;20092;-82
2022/08/18 11:16:24;;;;;;;10.02;8.00;;;;;;;24.85;56.38;96244.59;6244225;22;20080;-82
2022/08/18 11:19:12;;;;;;;7.97;7.18;;;;;;;24.89;56.31;96237.59;6243282;23;20023;-81
2022/08/18 11:21:49;;;;;;;9.65;8.85;;;;;;;24.93;56.18;96241.31;6243085;23;20048;-82
2022/08/18 11:24:30;;;;;;;9.27;8.00;;;;;;;24.96;56.48;96238.06;6238935;23;20027;-80
2022/08/18 11:27:04;;;;;;;8.10;7.30;;;;;;;24.99;56.44;96234.03;6243890;23;20024;-81
2022/08/18 11:35:19;;;;;;;9.75;7.90;;;;;;;25.22;54.48;96238.63;6237442;23;20431;-81
2022/08/18 11:38:03;;;;;;;8.80;8.00;;;;;;;25.26;54.88;96236.97;6243044;23;20064;-81
2022/08/18 11:43:40;;;;;;;7.88;7.18;;;;;;;25.36;53.94;96245.94;6236160;23;20024;-80
2022/08/18 11:46:22;;;;;;;8.57;7.68;;;;;;;25.36;53.80;96252.06;6235518;23;20048;-80
2022/08/18 11:49:01;;;;;;;7.30;6.65;;;;;;;25.40;54.38;96255.75;6238995;23;20015;-81
2022/08/18 11:51:40;;;;;;;9.23;8.18;;;;;;;25.45;53.57;96252.22;6242489;23;20260;-81
2022/08/18 11:58:06;;;;;;;7.45;6.85;;;;;;;25.52;55.03;96244.69;6240309;23;20072;-81
2022/08/18 12:01:16;;;;;;;8.73;7.30;;;;;;;25.48;53.78;96243.66;6242482;23;20039;-81
2022/08/18 12:03:49;;;;;;;7.13;6.43;;;;;;;25.45;53.69;96236.22;6236711;23;20020;-81
2022/08/18 12:06:22;;;;;;;7.25;6.65;;;;;;;25.44;52.94;96232.75;6231701;23;20017;-81
2022/08/18 12:08:59;;;;;;;7.18;6.47;;;;;;;25.44;51.34;96230.06;6227817;23;20055;-80
2022/08/18 12:11:30;;;;;;;6.07;5.55;;;;;;;25.42;51.44;96221.56;6234663;23;20070;-80
2022/08/18 12:14:08;;;;;;;8.68;6.88;;;;;;;25.41;51.67;96219.19;6228135;23;20076;-81
2022/08/18 12:16:56;;;;;;;6.60;5.80;;;;;;;25.47;52.02;96212.69;6225407;23;20112;-81
2022/08/18 12:22:22;;;;;;;7.35;6.65;;;;;;;25.59;51.64;96199.72;6237481;23;20020;-80
2022/08/18 12:24:50;;;;;;;8.20;7.35;;;;;;;25.65;51.05;96203.13;6217023;23;20048;-79
2022/08/18 12:27:22;;;;;;;7.40;6.68;;;;;;;25.72;51.05;96197.44;6217547;23;20024;-80
2022/08/18 12:29:52;;;;;;;8.30;7.38;;;;;;;25.79;50.98;96182.59;6214877;23;20491;-80
2022/08/18 12:32:23;;;;;;;7.93;7.22;;;;;;;25.85;51.05;96180.66;6215417;23;20043;-79
2022/08/18 12:35:12;;;;;;;8.68;6.60;;;;;;;25.89;50.70;96179.03;6216742;23;20401;-80
2022/08/18 12:37:43;;;;;;;7.88;7.10;;;;;;;25.90;50.51;96168.03;6217361;23;20021;-80
2022/08/18 12:40:30;;;;;;;6.63;6.03;;;;;;;25.93;50.83;96161.31;6216548;23;20024;-79
2022/08/18 12:42:58;;;;;;;7.88;5.70;;;;;;;25.97;51.07;96140.94;6217255;23;20131;-79
2022/08/18 12:45:29;;;;;;;6.57;5.97;;;;;;;26.03;50.80;96144.34;6217768;23;20020;-79
2022/08/18 12:47:58;;;;;;;7.22;6.53;;;;;;;26.08;50.37;96129.00;6217480;23;20392;-79
2022/08/18 12:50:26;;;;;;;6.65;6.00;;;;;;;26.14;50.09;96119.03;6216500;23;20021;-78
2022/08/18 12:53:13;;;;;;;8.23;6.88;;;;;;;26.21;49.97;96114.09;6212618;23;20020;-79
2022/08/18 12:55:44;;;;;;;7.20;6.50;;;;;;;26.27;49.86;96106.78;6214412;23;20017;-79
2022/08/18 12:58:12;;;;;;;7.60;6.85;;;;;;;26.31;49.81;96108.56;6214863;23;20028;-78
2022/08/18 13:00:42;;;;;;;8.82;7.03;;;;;;;26.36;49.60;96120.28;6213853;23;20031;-78
2022/08/18 13:03:10;;;;;;;9.35;7.45;;;;;;;26.39;49.18;96103.63;6214167;23;20020;-78
2022/08/18 13:05:38;;;;;;;7.75;6.32;;;;;;;26.44;49.67;96114.25;6214208;23;20035;-79
2022/08/18 13:08:12;;;;;;;6.53;6.03;;;;;;;26.48;49.62;96115.25;6214877;23;20509;-78
2022/08/18 13:11:00;;;;;;;6.25;5.65;;;;;;;26.54;49.71;96108.69;6216234;23;20052;-78
2022/08/18 13:13:47;;;;;;;6.97;5.97;;;;;;;26.51;48.92;96123.47;6215992;23;20017;-79
2022/08/18 13:16:21;;;;;;;6.68;6.10;;;;;;;26.50;48.66;96115.72;6215688;23;20042;-79
2022/08/18 13:19:09;;;;;;;7.30;6.60;;;;;;;26.52;48.73;96108.19;6215751;23;20360;-79
2022/08/18 13:21:37;;;;;;;6.95;6.35;;;;;;;26.55;49.01;96104.94;6215717;23;20036;-79
2022/08/18 13:24:08;;;;;;;9.35;6.50;;;;;;;26.61;48.63;96111.81;6216087;23;20072;-79
2022/08/18 13:26:40;;;;;;;7.72;6.95;;;;;;;26.65;48.38;96112.00;6215801;23;20522;-78
2022/08/18 13:29:08;;;;;;;7.45;6.28;;;;;;;26.69;48.58;96123.69;6214975;23;20465;-79
2022/08/18 13:31:38;;;;;;;7.93;6.60;;;;;;;26.74;48.09;96120.13;6215644;23;20019;-80
2022/08/18 13:34:06;;;;;;;7.68;6.22;;;;;;;26.75;48.40;96116.38;6215453;23;20028;-80